This is the latest recevied weather packets stored in our database for station/object KR4CWL-13. If no packets are shown the sender has not sent any weather packets the latest 1 day(s).
| Time | Temp. | Humidity | Pressure | Rain* | Wind** | Luminosity | Snow |
|---|---|---|---|---|---|---|---|
| 1777992251 | 25° C | 53% | 1010.2 hPa | 0 mm | 0.45 m/s, 270° | - | - |
| 1777991651 | 25.56° C | 52% | 1010.2 hPa | 0 mm | 0 m/s | - | - |
| 1777991051 | 24.44° C | 54% | 1010.2 hPa | 0 mm | 0.89 m/s, 293° | - | - |
| 1777990451 | 24.44° C | 55% | 1010.2 hPa | 0 mm | 0.45 m/s, 248° | - | - |
| 1777989851 | 23.89° C | 57% | 1010.2 hPa | 0 mm | 0.89 m/s, 338° | - | - |
| 1777989251 | 22.78° C | 59% | 1010.2 hPa | 0 mm | 0.89 m/s, 293° | - | - |
| 1777988651 | 22.22° C | 61% | 1010.2 hPa | 0 mm | 1.79 m/s, 315° | - | - |
| 1777988051 | 22.22° C | 63% | 1010.2 hPa | 0 mm | 0.89 m/s, 293° | - | - |
| 1777987451 | 21.11° C | 65% | 1010.2 hPa | 0 mm | 0.89 m/s, 315° | - | - |
| 1777986851 | 21.11° C | 66% | 1010.2 hPa | 0 mm | 0 m/s | - | - |
| 1777986251 | 20° C | 69% | 1010.2 hPa | 0 mm | 0.89 m/s, 315° | - | - |
| 1777985650 | 18.89° C | 71% | 1010.2 hPa | 0 mm | 0.89 m/s, 293° | - | - |
| 1777985050 | 17.78° C | 74% | 1010.2 hPa | 0 mm | 0 m/s | - | - |
| 1777984450 | 16.67° C | 77% | 1010.2 hPa | 0 mm | 0.89 m/s, 135° | - | - |
| 1777983850 | 16.11° C | 81% | 1010.2 hPa | 0 mm | 0 m/s | - | - |
| 1777983250 | 15° C | 84% | 1010.2 hPa | 0 mm | 0 m/s | - | - |
| 1777982650 | 14.44° C | 86% | 1009.8 hPa | 0 mm | 0 m/s | - | - |
| 1777982050 | 13.89° C | 88% | 1009.8 hPa | 0 mm | 0 m/s | - | - |
| 1777981450 | 13.33° C | 89% | 1009.8 hPa | 0 mm | 0 m/s | - | - |
| 1777980850 | 12.78° C | 90% | 1009.8 hPa | 0 mm | 0.89 m/s, 113° | - | - |
| 1777980250 | 12.78° C | 90% | 1009.8 hPa | 0 mm | 0 m/s | - | - |
| 1777979650 | 12.22° C | 91% | 1009.8 hPa | 0 mm | 0 m/s | - | - |
| 1777979050 | 12.22° C | 91% | 1009.8 hPa | 0 mm | 0 m/s | - | - |
| 1777978450 | 11.67° C | 92% | 1009.5 hPa | 0 mm | 0 m/s | - | - |
| 1777977850 | 11.67° C | 93% | 1009.1 hPa | 0 mm | 0 m/s | - | - |
* Rain since midnight (hover to see other rain measurements)
** Current wind speed in m/s (hover to see current wind gust speed)